sensor_id;sensor_type;location;lat;lon;timestamp;temperature;humidity
27890;DHT22;15238;49.082;9.102;2023-02-27T00:00:59;-1.20;99.90
27890;DHT22;15238;49.082;9.102;2023-02-27T00:03:00;-1.20;99.90
27890;DHT22;15238;49.082;9.102;2023-02-27T00:05:00;-1.20;99.90
27890;DHT22;15238;49.082;9.102;2023-02-27T00:07:01;-1.30;99.90
27890;DHT22;15238;49.082;9.102;2023-02-27T00:09:02;-1.20;99.90
27890;DHT22;15238;49.082;9.102;2023-02-27T00:11:03;-1.20;99.90
27890;DHT22;15238;49.082;9.102;2023-02-27T00:13:04;-1.20;99.90
27890;DHT22;15238;49.082;9.102;2023-02-27T00:15:12;-1.30;99.90
27890;DHT22;15238;49.082;9.102;2023-02-27T00:17:13;-1.30;99.90
27890;DHT22;15238;49.082;9.102;2023-02-27T00:19:14;-1.20;99.90
27890;DHT22;15238;49.082;9.102;2023-02-27T00:21:14;-1.30;99.90
27890;DHT22;15238;49.082;9.102;2023-02-27T00:23:15;-1.30;99.90
27890;DHT22;15238;49.082;9.102;2023-02-27T00:25:15;-1.30;99.90
27890;DHT22;15238;49.082;9.102;2023-02-27T00:27:16;-1.30;99.90
27890;DHT22;15238;49.082;9.102;2023-02-27T00:29:16;-1.30;99.90
27890;DHT22;15238;49.082;9.102;2023-02-27T00:31:17;-1.30;99.90
27890;DHT22;15238;49.082;9.102;2023-02-27T00:33:17;-1.30;99.90
27890;DHT22;15238;49.082;9.102;2023-02-27T00:35:18;-1.30;99.90
27890;DHT22;15238;49.082;9.102;2023-02-27T00:37:18;-1.30;99.90
27890;DHT22;15238;49.082;9.102;2023-02-27T00:39:19;-1.20;99.90
27890;DHT22;15238;49.082;9.102;2023-02-27T00:41:20;-1.30;99.90
27890;DHT22;15238;49.082;9.102;2023-02-27T00:43:20;-1.30;99.90
27890;DHT22;15238;49.082;9.102;2023-02-27T00:45:21;-1.30;99.90
27890;DHT22;15238;49.082;9.102;2023-02-27T00:47:21;-1.30;99.90
27890;DHT22;15238;49.082;9.102;2023-02-27T00:49:22;-1.20;99.90
27890;DHT22;15238;49.082;9.102;2023-02-27T00:51:22;-1.20;99.90
27890;DHT22;15238;49.082;9.102;2023-02-27T00:53:23;-1.30;99.90
27890;DHT22;15238;49.082;9.102;2023-02-27T00:55:24;-1.30;99.90
27890;DHT22;15238;49.082;9.102;2023-02-27T00:57:25;-1.30;99.90
27890;DHT22;15238;49.082;9.102;2023-02-27T00:59:25;-1.40;99.90
27890;DHT22;15238;49.082;9.102;2023-02-27T01:01:26;-1.30;99.90
27890;DHT22;15238;49.082;9.102;2023-02-27T01:03:26;-1.30;99.90
27890;DHT22;15238;49.082;9.102;2023-02-27T01:05:27;-1.40;99.90
27890;DHT22;15238;49.082;9.102;2023-02-27T01:07:27;-1.40;99.90
27890;DHT22;15238;49.082;9.102;2023-02-27T01:09:28;-1.40;99.90
27890;DHT22;15238;49.082;9.102;2023-02-27T01:11:29;-1.40;99.90
27890;DHT22;15238;49.082;9.102;2023-02-27T01:13:29;-1.50;99.90
27890;DHT22;15238;49.082;9.102;2023-02-27T01:15:30;-1.40;99.90
27890;DHT22;15238;49.082;9.102;2023-02-27T01:17:31;-1.40;99.90
27890;DHT22;15238;49.082;9.102;2023-02-27T01:19:31;-1.40;99.90
27890;DHT22;15238;49.082;9.102;2023-02-27T01:21:32;-1.40;99.90
27890;DHT22;15238;49.082;9.102;2023-02-27T01:23:33;-1.40;99.90
27890;DHT22;15238;49.082;9.102;2023-02-27T01:25:33;-1.30;99.90
27890;DHT22;15238;49.082;9.102;2023-02-27T01:27:34;-1.30;99.90
27890;DHT22;15238;49.082;9.102;2023-02-27T01:29:35;-1.40;99.90
27890;DHT22;15238;49.082;9.102;2023-02-27T01:31:36;-1.30;99.90
27890;DHT22;15238;49.082;9.102;2023-02-27T01:33:36;-1.40;99.90
27890;DHT22;15238;49.082;9.102;2023-02-27T01:35:37;-1.40;99.90
27890;DHT22;15238;49.082;9.102;2023-02-27T01:37:37;-1.50;99.90
27890;DHT22;15238;49.082;9.102;2023-02-27T01:39:38;-1.50;99.90
27890;DHT22;15238;49.082;9.102;2023-02-27T01:41:39;-1.60;99.90
27890;DHT22;15238;49.082;9.102;2023-02-27T01:44:15;-1.60;99.90
27890;DHT22;15238;49.082;9.102;2023-02-27T01:46:16;-1.60;99.90
27890;DHT22;15238;49.082;9.102;2023-02-27T01:48:33;-1.60;99.90
27890;DHT22;15238;49.082;9.102;2023-02-27T01:50:37;-1.60;99.90
27890;DHT22;15238;49.082;9.102;2023-02-27T01:52:40;-1.60;99.90
27890;DHT22;15238;49.082;9.102;2023-02-27T01:54:41;-1.60;99.90
27890;DHT22;15238;49.082;9.102;2023-02-27T01:56:42;-1.60;99.90
27890;DHT22;15238;49.082;9.102;2023-02-27T01:58:45;-1.60;99.90
27890;DHT22;15238;49.082;9.102;2023-02-27T02:00:47;-1.60;99.90
27890;DHT22;15238;49.082;9.102;2023-02-27T02:02:55;-1.60;99.90
27890;DHT22;15238;49.082;9.102;2023-02-27T02:04:58;-1.60;99.90
27890;DHT22;15238;49.082;9.102;2023-02-27T02:07:02;-1.60;99.90
27890;DHT22;15238;49.082;9.102;2023-02-27T02:09:04;-1.60;99.90
27890;DHT22;15238;49.082;9.102;2023-02-27T02:11:06;-1.60;99.90
27890;DHT22;15238;49.082;9.102;2023-02-27T02:13:08;-1.70;99.90
27890;DHT22;15238;49.082;9.102;2023-02-27T02:15:09;-1.70;99.90
27890;DHT22;15238;49.082;9.102;2023-02-27T02:17:22;-1.70;99.90
27890;DHT22;15238;49.082;9.102;2023-02-27T02:19:53;-1.70;99.90
27890;DHT22;15238;49.082;9.102;2023-02-27T02:26:49;-1.60;99.90
27890;DHT22;15238;49.082;9.102;2023-02-27T02:33:55;-1.80;99.90
27890;DHT22;15238;49.082;9.102;2023-02-27T02:38:32;-1.70;99.90
27890;DHT22;15238;49.082;9.102;2023-02-27T02:40:50;-1.80;99.90
27890;DHT22;15238;49.082;9.102;2023-02-27T02:43:11;-1.80;99.90
27890;DHT22;15238;49.082;9.102;2023-02-27T02:45:25;-1.80;99.90
27890;DHT22;15238;49.082;9.102;2023-02-27T02:50:19;-1.90;99.90
27890;DHT22;15238;49.082;9.102;2023-02-27T02:52:41;-1.90;99.90
27890;DHT22;15238;49.082;9.102;2023-02-27T02:54:48;-1.90;99.90
27890;DHT22;15238;49.082;9.102;2023-02-27T02:57:06;-1.90;99.90
27890;DHT22;15238;49.082;9.102;2023-02-27T02:59:31;-1.90;99.90
27890;DHT22;15238;49.082;9.102;2023-02-27T03:01:44;-1.90;99.90
27890;DHT22;15238;49.082;9.102;2023-02-27T03:03:53;-1.80;99.90
27890;DHT22;15238;49.082;9.102;2023-02-27T03:06:01;-1.80;99.90
27890;DHT22;15238;49.082;9.102;2023-02-27T03:08:07;-1.90;99.90
27890;DHT22;15238;49.082;9.102;2023-02-27T03:10:11;-1.90;99.90
27890;DHT22;15238;49.082;9.102;2023-02-27T03:12:17;-1.90;99.90
27890;DHT22;15238;49.082;9.102;2023-02-27T03:14:38;-1.90;99.90
27890;DHT22;15238;49.082;9.102;2023-02-27T03:16:43;-1.90;99.90
27890;DHT22;15238;49.082;9.102;2023-02-27T03:19:20;-1.90;99.90
27890;DHT22;15238;49.082;9.102;2023-02-27T03:21:31;-1.80;99.90
27890;DHT22;15238;49.082;9.102;2023-02-27T03:23:41;-1.90;99.90
27890;DHT22;15238;49.082;9.102;2023-02-27T03:25:42;-1.90;99.90
27890;DHT22;15238;49.082;9.102;2023-02-27T03:27:51;-1.90;99.90
27890;DHT22;15238;49.082;9.102;2023-02-27T03:30:39;-1.90;99.90
27890;DHT22;15238;49.082;9.102;2023-02-27T03:32:54;-1.90;99.90
27890;DHT22;15238;49.082;9.102;2023-02-27T03:34:56;-1.90;99.90
27890;DHT22;15238;49.082;9.102;2023-02-27T03:39:35;-2.00;99.90
27890;DHT22;15238;49.082;9.102;2023-02-27T03:44:10;-1.90;99.90
27890;DHT22;15238;49.082;9.102;2023-02-27T03:46:21;-2.00;99.90
27890;DHT22;15238;49.082;9.102;2023-02-27T03:48:22;-2.00;99.90
27890;DHT22;15238;49.082;9.102;2023-02-27T03:50:23;-2.10;99.90
27890;DHT22;15238;49.082;9.102;2023-02-27T03:52:25;-2.10;99.90
27890;DHT22;15238;49.082;9.102;2023-02-27T03:54:33;-2.10;99.90
27890;DHT22;15238;49.082;9.102;2023-02-27T03:58:39;-2.00;99.90
27890;DHT22;15238;49.082;9.102;2023-02-27T04:00:40;-2.00;99.90
27890;DHT22;15238;49.082;9.102;2023-02-27T04:02:43;-2.00;99.90
27890;DHT22;15238;49.082;9.102;2023-02-27T04:04:44;-2.00;99.90
27890;DHT22;15238;49.082;9.102;2023-02-27T04:06:48;-2.00;99.90
27890;DHT22;15238;49.082;9.102;2023-02-27T04:09:40;-2.10;99.90
27890;DHT22;15238;49.082;9.102;2023-02-27T04:21:18;-2.20;99.90
27890;DHT22;15238;49.082;9.102;2023-02-27T04:23:38;-2.20;99.90
27890;DHT22;15238;49.082;9.102;2023-02-27T04:25:53;-2.20;99.90
27890;DHT22;15238;49.082;9.102;2023-02-27T04:32:21;-2.20;99.90
27890;DHT22;15238;49.082;9.102;2023-02-27T04:34:32;-2.10;99.90
27890;DHT22;15238;49.082;9.102;2023-02-27T04:36:41;-2.20;99.90
27890;DHT22;15238;49.082;9.102;2023-02-27T04:38:52;-2.20;99.90
27890;DHT22;15238;49.082;9.102;2023-02-27T04:40:58;-2.20;99.90
27890;DHT22;15238;49.082;9.102;2023-02-27T04:43:02;-2.20;99.90
27890;DHT22;15238;49.082;9.102;2023-02-27T04:45:07;-2.30;99.90
27890;DHT22;15238;49.082;9.102;2023-02-27T04:47:10;-2.30;99.90
27890;DHT22;15238;49.082;9.102;2023-02-27T04:49:35;-2.30;99.90
27890;DHT22;15238;49.082;9.102;2023-02-27T04:51:43;-2.20;99.90
27890;DHT22;15238;49.082;9.102;2023-02-27T04:55:57;-2.20;99.90
27890;DHT22;15238;49.082;9.102;2023-02-27T04:58:09;-2.20;99.90
27890;DHT22;15238;49.082;9.102;2023-02-27T05:00:12;-2.20;99.90
27890;DHT22;15238;49.082;9.102;2023-02-27T05:02:21;-2.20;99.90
27890;DHT22;15238;49.082;9.102;2023-02-27T05:04:26;-2.30;99.90
27890;DHT22;15238;49.082;9.102;2023-02-27T05:06:31;-2.30;99.90
27890;DHT22;15238;49.082;9.102;2023-02-27T05:08:58;-2.30;99.90
27890;DHT22;15238;49.082;9.102;2023-02-27T05:13:37;-2.30;99.90
27890;DHT22;15238;49.082;9.102;2023-02-27T05:15:48;-2.30;99.90
27890;DHT22;15238;49.082;9.102;2023-02-27T05:18:11;-2.30;99.90
27890;DHT22;15238;49.082;9.102;2023-02-27T05:20:14;-2.30;99.90
27890;DHT22;15238;49.082;9.102;2023-02-27T05:22:26;-2.30;99.90
27890;DHT22;15238;49.082;9.102;2023-02-27T05:24:53;-2.30;99.90
27890;DHT22;15238;49.082;9.102;2023-02-27T05:27:14;-2.30;99.90
27890;DHT22;15238;49.082;9.102;2023-02-27T05:29:44;-2.30;99.90
27890;DHT22;15238;49.082;9.102;2023-02-27T05:31:54;-2.40;99.90
27890;DHT22;15238;49.082;9.102;2023-02-27T05:33:58;-2.30;99.90
27890;DHT22;15238;49.082;9.102;2023-02-27T05:36:03;-2.30;99.90
27890;DHT22;15238;49.082;9.102;2023-02-27T05:38:14;-2.40;99.90
27890;DHT22;15238;49.082;9.102;2023-02-27T05:40:24;-2.30;99.90
27890;DHT22;15238;49.082;9.102;2023-02-27T05:42:37;-2.30;99.90
27890;DHT22;15238;49.082;9.102;2023-02-27T05:44:50;-2.40;99.90
27890;DHT22;15238;49.082;9.102;2023-02-27T05:46:59;-2.40;99.90
27890;DHT22;15238;49.082;9.102;2023-02-27T05:49:31;-2.50;99.90
27890;DHT22;15238;49.082;9.102;2023-02-27T05:51:34;-2.50;99.90
27890;DHT22;15238;49.082;9.102;2023-02-27T05:53:40;-2.50;99.90
27890;DHT22;15238;49.082;9.102;2023-02-27T05:55:53;-2.60;99.90
27890;DHT22;15238;49.082;9.102;2023-02-27T05:57:58;-2.50;99.90
27890;DHT22;15238;49.082;9.102;2023-02-27T06:00:20;-2.50;99.90
27890;DHT22;15238;49.082;9.102;2023-02-27T06:02:23;-2.60;99.90
27890;DHT22;15238;49.082;9.102;2023-02-27T06:04:24;-2.60;99.90
27890;DHT22;15238;49.082;9.102;2023-02-27T06:06:24;-2.50;99.90
27890;DHT22;15238;49.082;9.102;2023-02-27T06:08:26;-2.50;99.90
27890;DHT22;15238;49.082;9.102;2023-02-27T06:10:27;-2.50;99.90
27890;DHT22;15238;49.082;9.102;2023-02-27T06:12:27;-2.50;99.90
27890;DHT22;15238;49.082;9.102;2023-02-27T06:14:28;-2.60;99.90
27890;DHT22;15238;49.082;9.102;2023-02-27T06:16:28;-2.60;99.90
27890;DHT22;15238;49.082;9.102;2023-02-27T06:18:29;-2.60;99.90
27890;DHT22;15238;49.082;9.102;2023-02-27T06:20:29;-2.70;99.90
27890;DHT22;15238;49.082;9.102;2023-02-27T06:22:30;-2.60;99.90
27890;DHT22;15238;49.082;9.102;2023-02-27T06:24:30;-2.60;99.90
27890;DHT22;15238;49.082;9.102;2023-02-27T06:26:31;-2.60;99.90
27890;DHT22;15238;49.082;9.102;2023-02-27T06:28:31;-2.60;99.90
27890;DHT22;15238;49.082;9.102;2023-02-27T06:30:32;-2.60;99.90
27890;DHT22;15238;49.082;9.102;2023-02-27T06:32:33;-2.60;99.90
27890;DHT22;15238;49.082;9.102;2023-02-27T06:34:33;-2.60;99.90
27890;DHT22;15238;49.082;9.102;2023-02-27T06:36:34;-2.50;99.90
27890;DHT22;15238;49.082;9.102;2023-02-27T06:38:34;-2.40;99.90
27890;DHT22;15238;49.082;9.102;2023-02-27T06:40:36;-2.40;99.90
27890;DHT22;15238;49.082;9.102;2023-02-27T06:42:38;-2.40;99.90
27890;DHT22;15238;49.082;9.102;2023-02-27T06:44:39;-2.40;99.90
27890;DHT22;15238;49.082;9.102;2023-02-27T06:46:39;-2.30;99.90
27890;DHT22;15238;49.082;9.102;2023-02-27T06:48:40;-2.30;99.90
27890;DHT22;15238;49.082;9.102;2023-02-27T06:50:40;-2.30;99.90
27890;DHT22;15238;49.082;9.102;2023-02-27T06:52:41;-2.30;99.90
27890;DHT22;15238;49.082;9.102;2023-02-27T06:54:42;-2.20;99.90
27890;DHT22;15238;49.082;9.102;2023-02-27T06:56:42;-2.20;99.90
27890;DHT22;15238;49.082;9.102;2023-02-27T06:58:43;-2.10;99.90
27890;DHT22;15238;49.082;9.102;2023-02-27T07:00:43;-2.00;99.90
27890;DHT22;15238;49.082;9.102;2023-02-27T07:02:44;-2.00;99.90
27890;DHT22;15238;49.082;9.102;2023-02-27T07:04:44;-1.90;99.90
27890;DHT22;15238;49.082;9.102;2023-02-27T07:06:45;-1.90;99.90
27890;DHT22;15238;49.082;9.102;2023-02-27T07:08:45;-1.80;99.90
27890;DHT22;15238;49.082;9.102;2023-02-27T07:10:46;-1.80;99.90
27890;DHT22;15238;49.082;9.102;2023-02-27T07:12:48;-1.70;99.90
27890;DHT22;15238;49.082;9.102;2023-02-27T07:14:48;-1.70;99.90
27890;DHT22;15238;49.082;9.102;2023-02-27T07:16:49;-1.60;99.90
27890;DHT22;15238;49.082;9.102;2023-02-27T07:18:53;-1.60;99.90
27890;DHT22;15238;49.082;9.102;2023-02-27T07:20:53;-1.50;99.90
27890;DHT22;15238;49.082;9.102;2023-02-27T07:22:54;-1.50;99.90
27890;DHT22;15238;49.082;9.102;2023-02-27T07:24:55;-1.40;99.90
27890;DHT22;15238;49.082;9.102;2023-02-27T07:26:55;-1.40;99.90
27890;DHT22;15238;49.082;9.102;2023-02-27T07:28:56;-1.30;99.90
27890;DHT22;15238;49.082;9.102;2023-02-27T07:30:56;-1.20;99.90
27890;DHT22;15238;49.082;9.102;2023-02-27T07:32:57;-1.20;99.90
27890;DHT22;15238;49.082;9.102;2023-02-27T07:34:57;-1.10;99.90
27890;DHT22;15238;49.082;9.102;2023-02-27T07:36:58;-1.00;99.90
27890;DHT22;15238;49.082;9.102;2023-02-27T07:38:59;-1.00;99.90
27890;DHT22;15238;49.082;9.102;2023-02-27T07:40:59;-0.90;99.90
27890;DHT22;15238;49.082;9.102;2023-02-27T07:42:59;-0.80;99.90
27890;DHT22;15238;49.082;9.102;2023-02-27T07:45:00;-0.80;99.90
27890;DHT22;15238;49.082;9.102;2023-02-27T07:47:01;-0.70;99.90
27890;DHT22;15238;49.082;9.102;2023-02-27T07:49:02;-0.70;99.90
27890;DHT22;15238;49.082;9.102;2023-02-27T07:51:02;-0.60;99.90
27890;DHT22;15238;49.082;9.102;2023-02-27T07:53:03;-0.50;99.90
27890;DHT22;15238;49.082;9.102;2023-02-27T07:55:05;-0.40;99.90
27890;DHT22;15238;49.082;9.102;2023-02-27T07:57:05;-0.30;99.90
27890;DHT22;15238;49.082;9.102;2023-02-27T07:59:06;-0.30;99.90
27890;DHT22;15238;49.082;9.102;2023-02-27T08:01:06;-0.30;99.90
27890;DHT22;15238;49.082;9.102;2023-02-27T08:03:07;-0.30;99.90
27890;DHT22;15238;49.082;9.102;2023-02-27T08:05:08;-0.20;99.90
27890;DHT22;15238;49.082;9.102;2023-02-27T08:07:09;-0.20;99.90
27890;DHT22;15238;49.082;9.102;2023-02-27T08:09:09;-0.10;99.90
27890;DHT22;15238;49.082;9.102;2023-02-27T08:11:10;0.00;99.90
27890;DHT22;15238;49.082;9.102;2023-02-27T08:13:10;0.00;99.90
27890;DHT22;15238;49.082;9.102;2023-02-27T08:15:11;0.00;99.90
27890;DHT22;15238;49.082;9.102;2023-02-27T08:17:12;0.10;99.90
27890;DHT22;15238;49.082;9.102;2023-02-27T08:19:13;0.20;99.90
27890;DHT22;15238;49.082;9.102;2023-02-27T08:21:13;0.20;99.90
27890;DHT22;15238;49.082;9.102;2023-02-27T08:23:15;0.30;99.90
27890;DHT22;15238;49.082;9.102;2023-02-27T08:25:15;0.30;99.90
27890;DHT22;15238;49.082;9.102;2023-02-27T08:27:16;0.40;99.90
27890;DHT22;15238;49.082;9.102;2023-02-27T08:29:16;0.40;99.90
27890;DHT22;15238;49.082;9.102;2023-02-27T08:31:17;0.50;99.90
27890;DHT22;15238;49.082;9.102;2023-02-27T08:33:17;0.60;99.90
27890;DHT22;15238;49.082;9.102;2023-02-27T08:35:18;0.60;99.90
27890;DHT22;15238;49.082;9.102;2023-02-27T08:37:19;0.70;99.90
27890;DHT22;15238;49.082;9.102;2023-02-27T08:39:19;0.70;99.90
27890;DHT22;15238;49.082;9.102;2023-02-27T08:41:23;0.80;99.90
27890;DHT22;15238;49.082;9.102;2023-02-27T08:43:23;0.80;99.90
27890;DHT22;15238;49.082;9.102;2023-02-27T08:45:24;0.90;99.90
27890;DHT22;15238;49.082;9.102;2023-02-27T08:47:24;0.90;99.90
27890;DHT22;15238;49.082;9.102;2023-02-27T08:49:25;1.00;99.90
27890;DHT22;15238;49.082;9.102;2023-02-27T08:51:26;1.10;99.90
27890;DHT22;15238;49.082;9.102;2023-02-27T08:53:26;1.10;99.90
27890;DHT22;15238;49.082;9.102;2023-02-27T08:55:27;1.20;99.90
27890;DHT22;15238;49.082;9.102;2023-02-27T08:57:28;1.30;99.90
27890;DHT22;15238;49.082;9.102;2023-02-27T08:59:29;1.30;99.90
27890;DHT22;15238;49.082;9.102;2023-02-27T09:01:30;1.50;99.90
27890;DHT22;15238;49.082;9.102;2023-02-27T09:03:33;1.50;99.90
27890;DHT22;15238;49.082;9.102;2023-02-27T09:05:34;1.50;99.90
27890;DHT22;15238;49.082;9.102;2023-02-27T09:07:36;1.50;99.90
27890;DHT22;15238;49.082;9.102;2023-02-27T09:09:37;1.60;99.90
27890;DHT22;15238;49.082;9.102;2023-02-27T09:11:37;1.50;99.90
27890;DHT22;15238;49.082;9.102;2023-02-27T09:13:38;1.60;99.90
27890;DHT22;15238;49.082;9.102;2023-02-27T09:15:38;1.50;99.90
27890;DHT22;15238;49.082;9.102;2023-02-27T09:17:39;1.60;99.90
27890;DHT22;15238;49.082;9.102;2023-02-27T09:19:39;1.70;99.90
27890;DHT22;15238;49.082;9.102;2023-02-27T09:21:41;1.80;99.90
27890;DHT22;15238;49.082;9.102;2023-02-27T09:23:42;1.90;99.90
27890;DHT22;15238;49.082;9.102;2023-02-27T09:25:42;1.90;99.90
27890;DHT22;15238;49.082;9.102;2023-02-27T09:27:43;1.90;99.90
27890;DHT22;15238;49.082;9.102;2023-02-27T09:29:43;1.90;99.90
27890;DHT22;15238;49.082;9.102;2023-02-27T09:31:44;2.00;99.90
27890;DHT22;15238;49.082;9.102;2023-02-27T09:33:44;2.10;99.90
27890;DHT22;15238;49.082;9.102;2023-02-27T09:35:45;2.20;99.90
27890;DHT22;15238;49.082;9.102;2023-02-27T09:37:46;2.20;99.90
27890;DHT22;15238;49.082;9.102;2023-02-27T09:39:47;2.20;99.90
27890;DHT22;15238;49.082;9.102;2023-02-27T09:46:22;2.20;99.90
27890;DHT22;15238;49.082;9.102;2023-02-27T09:48:29;2.10;99.90
27890;DHT22;15238;49.082;9.102;2023-02-27T09:50:46;2.20;99.90
27890;DHT22;15238;49.082;9.102;2023-02-27T09:52:47;2.20;99.90
27890;DHT22;15238;49.082;9.102;2023-02-27T09:54:47;2.20;99.90
27890;DHT22;15238;49.082;9.102;2023-02-27T09:56:53;2.20;99.90
27890;DHT22;15238;49.082;9.102;2023-02-27T10:01:26;2.30;99.90
27890;DHT22;15238;49.082;9.102;2023-02-27T10:05:41;2.40;99.90
27890;DHT22;15238;49.082;9.102;2023-02-27T10:07:51;2.40;99.90
27890;DHT22;15238;49.082;9.102;2023-02-27T10:12:30;2.40;99.90
27890;DHT22;15238;49.082;9.102;2023-02-27T10:17:05;2.60;99.90
27890;DHT22;15238;49.082;9.102;2023-02-27T10:19:22;2.50;99.90
27890;DHT22;15238;49.082;9.102;2023-02-27T10:21:32;2.50;99.90
27890;DHT22;15238;49.082;9.102;2023-02-27T10:23:38;2.60;99.90
27890;DHT22;15238;49.082;9.102;2023-02-27T10:25:44;2.60;99.90
27890;DHT22;15238;49.082;9.102;2023-02-27T10:27:48;2.60;99.90
27890;DHT22;15238;49.082;9.102;2023-02-27T10:29:49;2.60;99.90
27890;DHT22;15238;49.082;9.102;2023-02-27T10:32:09;2.70;99.90
27890;DHT22;15238;49.082;9.102;2023-02-27T10:34:14;2.70;99.90
27890;DHT22;15238;49.082;9.102;2023-02-27T10:36:17;2.70;99.90
27890;DHT22;15238;49.082;9.102;2023-02-27T10:38:31;2.70;99.90
27890;DHT22;15238;49.082;9.102;2023-02-27T10:40:35;2.80;99.90
27890;DHT22;15238;49.082;9.102;2023-02-27T10:42:38;2.80;99.80
27890;DHT22;15238;49.082;9.102;2023-02-27T10:44:38;2.80;99.90
27890;DHT22;15238;49.082;9.102;2023-02-27T10:46:39;2.90;99.90
27890;DHT22;15238;49.082;9.102;2023-02-27T10:48:40;3.00;99.90
27890;DHT22;15238;49.082;9.102;2023-02-27T10:50:43;3.10;99.90
27890;DHT22;15238;49.082;9.102;2023-02-27T10:52:48;3.00;99.90
27890;DHT22;15238;49.082;9.102;2023-02-27T10:54:49;2.90;99.90
27890;DHT22;15238;49.082;9.102;2023-02-27T10:56:59;2.80;99.90
27890;DHT22;15238;49.082;9.102;2023-02-27T10:59:05;2.80;99.90
27890;DHT22;15238;49.082;9.102;2023-02-27T11:01:08;2.90;99.90
27890;DHT22;15238;49.082;9.102;2023-02-27T11:03:20;2.80;99.10
27890;DHT22;15238;49.082;9.102;2023-02-27T11:05:32;2.90;99.90
27890;DHT22;15238;49.082;9.102;2023-02-27T11:07:37;3.00;99.60
27890;DHT22;15238;49.082;9.102;2023-02-27T11:09:38;3.10;99.40
27890;DHT22;15238;49.082;9.102;2023-02-27T11:11:38;3.20;99.90
27890;DHT22;15238;49.082;9.102;2023-02-27T11:13:41;3.20;99.60
27890;DHT22;15238;49.082;9.102;2023-02-27T11:15:42;3.20;99.30
27890;DHT22;15238;49.082;9.102;2023-02-27T11:17:43;3.30;99.10
27890;DHT22;15238;49.082;9.102;2023-02-27T11:19:43;3.30;98.80
27890;DHT22;15238;49.082;9.102;2023-02-27T11:22:00;3.20;98.40
27890;DHT22;15238;49.082;9.102;2023-02-27T11:24:03;3.20;98.80
27890;DHT22;15238;49.082;9.102;2023-02-27T11:26:15;3.20;98.60
27890;DHT22;15238;49.082;9.102;2023-02-27T11:28:25;3.10;99.80
27890;DHT22;15238;49.082;9.102;2023-02-27T11:30:28;3.20;98.60
27890;DHT22;15238;49.082;9.102;2023-02-27T11:32:42;3.30;98.70
27890;DHT22;15238;49.082;9.102;2023-02-27T11:34:48;3.40;98.90
27890;DHT22;15238;49.082;9.102;2023-02-27T11:36:53;3.40;99.50
27890;DHT22;15238;49.082;9.102;2023-02-27T11:38:55;3.40;98.20
27890;DHT22;15238;49.082;9.102;2023-02-27T11:41:01;3.50;98.10
27890;DHT22;15238;49.082;9.102;2023-02-27T11:43:05;3.40;98.80
27890;DHT22;15238;49.082;9.102;2023-02-27T11:47:39;3.60;98.40
27890;DHT22;15238;49.082;9.102;2023-02-27T11:52:13;3.60;97.50
27890;DHT22;15238;49.082;9.102;2023-02-27T11:56:53;3.60;98.90
27890;DHT22;15238;49.082;9.102;2023-02-27T12:01:26;3.60;97.60
27890;DHT22;15238;49.082;9.102;2023-02-27T12:03:49;3.50;97.60
27890;DHT22;15238;49.082;9.102;2023-02-27T12:05:55;3.40;97.00
27890;DHT22;15238;49.082;9.102;2023-02-27T12:08:22;3.40;97.70
27890;DHT22;15238;49.082;9.102;2023-02-27T12:10:29;3.40;98.00
27890;DHT22;15238;49.082;9.102;2023-02-27T12:12:46;3.40;96.90
27890;DHT22;15238;49.082;9.102;2023-02-27T12:17:17;3.50;98.10
27890;DHT22;15238;49.082;9.102;2023-02-27T12:19:37;3.60;97.90
27890;DHT22;15238;49.082;9.102;2023-02-27T12:21:42;3.60;96.80
27890;DHT22;15238;49.082;9.102;2023-02-27T12:23:59;3.50;96.00
27890;DHT22;15238;49.082;9.102;2023-02-27T12:26:06;3.40;96.70
27890;DHT22;15238;49.082;9.102;2023-02-27T12:30:50;3.20;96.60
27890;DHT22;15238;49.082;9.102;2023-02-27T12:33:02;3.30;96.70
27890;DHT22;15238;49.082;9.102;2023-02-27T12:37:28;3.40;96.30
27890;DHT22;15238;49.082;9.102;2023-02-27T12:39:30;3.40;96.60
27890;DHT22;15238;49.082;9.102;2023-02-27T12:42:06;3.40;96.10
27890;DHT22;15238;49.082;9.102;2023-02-27T12:44:25;3.40;95.80
27890;DHT22;15238;49.082;9.102;2023-02-27T12:49:39;3.60;95.80
27890;DHT22;15238;49.082;9.102;2023-02-27T12:52:01;3.60;95.40
27890;DHT22;15238;49.082;9.102;2023-02-27T12:54:06;3.50;95.40
27890;DHT22;15238;49.082;9.102;2023-02-27T12:56:15;3.50;94.90
27890;DHT22;15238;49.082;9.102;2023-02-27T13:00:39;3.70;96.10
27890;DHT22;15238;49.082;9.102;2023-02-27T13:03:03;3.50;94.50
27890;DHT22;15238;49.082;9.102;2023-02-27T13:07:43;3.30;95.30
27890;DHT22;15238;49.082;9.102;2023-02-27T13:09:58;3.40;95.10
27890;DHT22;15238;49.082;9.102;2023-02-27T13:12:22;3.40;94.90
27890;DHT22;15238;49.082;9.102;2023-02-27T13:14:48;3.40;95.40
27890;DHT22;15238;49.082;9.102;2023-02-27T13:17:00;3.50;95.60
27890;DHT22;15238;49.082;9.102;2023-02-27T13:19:17;3.70;94.20
27890;DHT22;15238;49.082;9.102;2023-02-27T13:21:48;3.60;94.70
27890;DHT22;15238;49.082;9.102;2023-02-27T13:24:10;3.50;95.20
27890;DHT22;15238;49.082;9.102;2023-02-27T13:26:20;3.40;95.60
27890;DHT22;15238;49.082;9.102;2023-02-27T13:28:26;3.40;96.50
27890;DHT22;15238;49.082;9.102;2023-02-27T13:35:22;3.50;95.10
27890;DHT22;15238;49.082;9.102;2023-02-27T13:38:01;3.30;95.70
27890;DHT22;15238;49.082;9.102;2023-02-27T13:40:38;3.20;95.60
27890;DHT22;15238;49.082;9.102;2023-02-27T13:44:40;3.20;95.00
27890;DHT22;15238;49.082;9.102;2023-02-27T13:46:40;3.20;95.00
27890;DHT22;15238;49.082;9.102;2023-02-27T13:48:46;3.10;94.40
27890;DHT22;15238;49.082;9.102;2023-02-27T13:50:48;3.00;94.30
27890;DHT22;15238;49.082;9.102;2023-02-27T13:52:49;3.00;94.80
27890;DHT22;15238;49.082;9.102;2023-02-27T13:54:50;3.10;95.20
27890;DHT22;15238;49.082;9.102;2023-02-27T13:58:54;3.50;94.80
27890;DHT22;15238;49.082;9.102;2023-02-27T14:00:59;3.50;94.30
27890;DHT22;15238;49.082;9.102;2023-02-27T14:03:22;3.60;94.10
27890;DHT22;15238;49.082;9.102;2023-02-27T14:05:29;3.60;93.80
27890;DHT22;15238;49.082;9.102;2023-02-27T14:07:33;3.70;93.60
27890;DHT22;15238;49.082;9.102;2023-02-27T14:10:07;3.80;93.00
27890;DHT22;15238;49.082;9.102;2023-02-27T14:14:44;3.70;94.30
27890;DHT22;15238;49.082;9.102;2023-02-27T14:18:51;3.80;92.80
27890;DHT22;15238;49.082;9.102;2023-02-27T14:20:53;3.60;93.60
27890;DHT22;15238;49.082;9.102;2023-02-27T14:27:21;3.30;94.00
27890;DHT22;15238;49.082;9.102;2023-02-27T14:29:26;3.40;94.80
27890;DHT22;15238;49.082;9.102;2023-02-27T14:31:32;3.50;94.10
27890;DHT22;15238;49.082;9.102;2023-02-27T14:33:40;3.50;93.30
27890;DHT22;15238;49.082;9.102;2023-02-27T14:35:52;3.50;93.80
27890;DHT22;15238;49.082;9.102;2023-02-27T14:37:55;3.50;93.50
27890;DHT22;15238;49.082;9.102;2023-02-27T14:39:57;3.40;93.40
27890;DHT22;15238;49.082;9.102;2023-02-27T14:44:21;3.30;92.50
27890;DHT22;15238;49.082;9.102;2023-02-27T14:46:33;3.40;93.50
27890;DHT22;15238;49.082;9.102;2023-02-27T14:48:33;3.60;93.20
27890;DHT22;15238;49.082;9.102;2023-02-27T14:50:39;3.70;92.30
27890;DHT22;15238;49.082;9.102;2023-02-27T14:52:41;3.70;92.40
27890;DHT22;15238;49.082;9.102;2023-02-27T14:54:42;3.70;92.70
27890;DHT22;15238;49.082;9.102;2023-02-27T14:56:56;3.60;92.60
27890;DHT22;15238;49.082;9.102;2023-02-27T14:58:56;3.50;92.50
27890;DHT22;15238;49.082;9.102;2023-02-27T15:01:05;3.50;93.20